Time;durP1;ratioP1;P1;durP2;ratioP2;P2;SDS_P1;SDS_P2;PMS_P1;PMS_P2;Temp;Humidity;BMP_temperature;BMP_pressure;BME280_temperature;BME280_humidity;BME280_pressure;Samples;Min_cycle;Max_cycle;Signal;HPM_P1;HPM_P2
2022/02/12 00:00:09;;;;;;;1.45;0.70;;;;;;;;;;1638504;29;21736;-62
2022/02/12 00:01:00;;;;;;;5.80;0.70;;;;;;;;;;1638938;29;21685;-62
2022/02/12 00:01:52;;;;;;;6.85;1.33;;;;;;;;;;1639504;29;22056;-62
2022/02/12 00:02:43;;;;;;;2.15;0.80;;;;;;;;;;1639091;30;21558;-62
2022/02/12 00:03:35;;;;;;;4.60;0.70;;;;;;;;;;1641983;29;21700;-63
2022/02/12 00:04:27;;;;;;;6.50;0.80;;;;;;;;;;1633022;30;21878;-63
2022/02/12 00:05:19;;;;;;;1.25;0.85;;;;;;;;;;1639115;29;21550;-63
2022/02/12 00:06:13;;;;;;;15.65;1.05;;;;;;;;;;1636602;29;21557;-63
2022/02/12 00:07:04;;;;;;;4.78;0.82;;;;;;;;;;1639686;30;21556;-63
2022/02/12 00:07:59;;;;;;;0.88;0.57;;;;;;;;;;1639036;29;21605;-63
2022/02/12 00:08:50;;;;;;;1.63;0.82;;;;;;;;;;1638877;30;21709;-62
2022/02/12 00:09:42;;;;;;;1.10;0.80;;;;;;;;;;1639010;29;21710;-62
2022/02/12 00:10:35;;;;;;;5.13;0.60;;;;;;;;;;1639240;29;21841;-63
2022/02/12 00:11:27;;;;;;;0.73;0.52;;;;;;;;;;1638583;30;21578;-63
2022/02/12 00:12:18;;;;;;;6.07;0.93;;;;;;;;;;1635313;30;21561;-63
2022/02/12 00:13:11;;;;;;;19.10;1.30;;;;;;;;;;1636224;30;21532;-64
2022/02/12 00:14:02;;;;;;;12.00;0.90;;;;;;;;;;1638632;30;21725;-63
2022/02/12 00:14:56;;;;;;;28.63;1.70;;;;;;;;;;1640051;29;21630;-63
2022/02/12 00:15:47;;;;;;;21.65;1.20;;;;;;;;;;1640598;30;21557;-63
2022/02/12 00:16:39;;;;;;;26.48;1.83;;;;;;;;;;1640742;29;21500;-64
2022/02/12 00:17:30;;;;;;;34.38;2.53;;;;;;;;;;1639501;30;21564;-63
2022/02/12 00:18:23;;;;;;;47.03;2.40;;;;;;;;;;1640282;30;21662;-62
2022/02/12 00:19:14;;;;;;;29.15;1.45;;;;;;;;;;1640468;30;21532;-62
2022/02/12 00:20:07;;;;;;;34.17;3.42;;;;;;;;;;1640856;29;22129;-63
2022/02/12 00:20:59;;;;;;;16.67;1.30;;;;;;;;;;1639723;29;22465;-62
2022/02/12 00:21:51;;;;;;;6.40;1.50;;;;;;;;;;1640652;29;21553;-62
2022/02/12 00:22:43;;;;;;;21.80;2.63;;;;;;;;;;1640908;29;21509;-63
2022/02/12 00:23:34;;;;;;;6.97;0.90;;;;;;;;;;1639345;30;21688;-62
2022/02/12 00:24:26;;;;;;;10.90;0.90;;;;;;;;;;1640193;30;22182;-62
2022/02/12 00:25:18;;;;;;;7.10;1.02;;;;;;;;;;1639541;29;21595;-62
2022/02/12 00:26:12;;;;;;;14.50;1.20;;;;;;;;;;1640896;29;22141;-62
2022/02/12 00:27:03;;;;;;;7.90;0.88;;;;;;;;;;1640703;29;21614;-62
2022/02/12 00:27:55;;;;;;;2.65;0.75;;;;;;;;;;1640068;29;22189;-63
2022/02/12 00:28:46;;;;;;;17.65;0.70;;;;;;;;;;1640664;29;21532;-62
2022/02/12 00:29:39;;;;;;;3.92;0.65;;;;;;;;;;1640656;29;21981;-63
2022/02/12 00:30:30;;;;;;;16.48;1.10;;;;;;;;;;1639995;30;21568;-62
2022/02/12 00:31:22;;;;;;;10.55;0.82;;;;;;;;;;1640012;29;21514;-62
2022/02/12 00:32:13;;;;;;;8.27;1.00;;;;;;;;;;1637933;30;21572;-62
2022/02/12 00:33:08;;;;;;;11.63;0.88;;;;;;;;;;1640764;29;21728;-62
2022/02/12 00:34:00;;;;;;;13.70;1.10;;;;;;;;;;1639988;30;21567;-63
2022/02/12 00:34:52;;;;;;;8.07;0.90;;;;;;;;;;1640605;30;21498;-62
2022/02/12 00:35:44;;;;;;;1.58;0.60;;;;;;;;;;1640781;30;21504;-62
2022/02/12 00:36:36;;;;;;;3.28;1.13;;;;;;;;;;1640935;29;22035;-62
2022/02/12 00:37:29;;;;;;;5.63;0.75;;;;;;;;;;1646053;29;21554;-62
2022/02/12 00:38:21;;;;;;;24.40;1.10;;;;;;;;;;1645964;29;21531;-62
2022/02/12 00:39:13;;;;;;;7.15;1.00;;;;;;;;;;1633872;30;21571;-62
2022/02/12 00:40:06;;;;;;;11.45;1.20;;;;;;;;;;1634019;30;21546;-62
2022/02/12 00:40:58;;;;;;;1.88;0.77;;;;;;;;;;1637797;30;21527;-62
2022/02/12 00:41:51;;;;;;;2.97;0.60;;;;;;;;;;1638157;30;21582;-62
2022/02/12 00:42:42;;;;;;;13.57;1.05;;;;;;;;;;1640357;30;21597;-62
2022/02/12 00:43:35;;;;;;;11.27;1.00;;;;;;;;;;1640591;29;22064;-62
2022/02/12 00:44:26;;;;;;;16.33;0.90;;;;;;;;;;1646173;29;21649;-62
2022/02/12 00:45:18;;;;;;;4.15;0.73;;;;;;;;;;1646395;29;22163;-62
2022/02/12 00:46:09;;;;;;;11.63;0.73;;;;;;;;;;1641924;29;21507;-62
2022/02/12 00:47:02;;;;;;;3.90;0.75;;;;;;;;;;1640579;29;22148;-61
2022/02/12 00:47:53;;;;;;;4.50;0.77;;;;;;;;;;1639927;30;21573;-61
2022/02/12 00:48:45;;;;;;;6.28;1.08;;;;;;;;;;1633166;30;21513;-62
2022/02/12 00:49:37;;;;;;;4.00;0.90;;;;;;;;;;1637736;30;21635;-63
2022/02/12 00:50:29;;;;;;;7.05;0.65;;;;;;;;;;1640386;30;21994;-62
2022/02/12 00:51:20;;;;;;;4.63;0.80;;;;;;;;;;1639770;29;21541;-62
2022/02/12 00:52:12;;;;;;;1.48;1.02;;;;;;;;;;1639732;30;21658;-63
2022/02/12 00:53:04;;;;;;;1.65;1.00;;;;;;;;;;1639388;30;21587;-62
2022/02/12 00:53:56;;;;;;;6.38;1.05;;;;;;;;;;1641163;30;21670;-63
2022/02/12 00:54:47;;;;;;;6.30;0.63;;;;;;;;;;1640595;29;21602;-63
2022/02/12 00:55:39;;;;;;;6.18;0.85;;;;;;;;;;1639300;29;21535;-63
2022/02/12 00:56:31;;;;;;;6.80;1.00;;;;;;;;;;1640109;29;21512;-63
2022/02/12 00:57:24;;;;;;;4.07;0.80;;;;;;;;;;1639704;30;21619;-63
2022/02/12 00:58:16;;;;;;;1.52;0.80;;;;;;;;;;1639913;29;22161;-63
2022/02/12 00:59:08;;;;;;;1.83;1.00;;;;;;;;;;1640474;30;21539;-63
2022/02/12 00:59:59;;;;;;;17.40;1.27;;;;;;;;;;1640577;30;21851;-61
2022/02/12 01:00:51;;;;;;;7.32;0.68;;;;;;;;;;1639873;30;21626;-63
2022/02/12 01:01:42;;;;;;;15.45;1.20;;;;;;;;;;1639990;29;21668;-63
2022/02/12 01:02:35;;;;;;;9.43;1.02;;;;;;;;;;1640579;30;21541;-63
2022/02/12 01:03:26;;;;;;;5.80;0.75;;;;;;;;;;1634544;30;21565;-63
2022/02/12 01:04:19;;;;;;;5.93;1.10;;;;;;;;;;1639274;30;21553;-63
2022/02/12 01:05:10;;;;;;;8.57;0.90;;;;;;;;;;1640004;30;21639;-63
2022/02/12 01:06:02;;;;;;;1.73;0.55;;;;;;;;;;1640574;30;21875;-63
2022/02/12 01:06:54;;;;;;;7.90;0.80;;;;;;;;;;1640573;30;22165;-63
2022/02/12 01:07:46;;;;;;;2.08;0.68;;;;;;;;;;1639967;30;21497;-62
2022/02/12 01:08:37;;;;;;;7.32;0.90;;;;;;;;;;1640424;30;21617;-63
2022/02/12 01:09:29;;;;;;;13.20;2.45;;;;;;;;;;1640395;30;22097;-63
2022/02/12 01:10:21;;;;;;;2.38;0.98;;;;;;;;;;1640172;30;21541;-63
2022/02/12 01:11:13;;;;;;;1.98;0.80;;;;;;;;;;1639493;30;21566;-63
2022/02/12 01:12:06;;;;;;;1.67;0.55;;;;;;;;;;1639042;30;21621;-63
2022/02/12 01:13:00;;;;;;;6.47;0.60;;;;;;;;;;1639872;30;21723;-63
2022/02/12 01:13:51;;;;;;;1.40;0.73;;;;;;;;;;1640406;30;21568;-63
2022/02/12 01:14:43;;;;;;;6.95;1.23;;;;;;;;;;1640610;30;21657;-63
2022/02/12 01:15:35;;;;;;;2.70;0.70;;;;;;;;;;1639675;29;21538;-63
2022/02/12 01:16:27;;;;;;;4.40;0.90;;;;;;;;;;1640628;29;21605;-63
2022/02/12 01:17:18;;;;;;;7.68;0.63;;;;;;;;;;1640371;30;21667;-63
2022/02/12 01:18:11;;;;;;;1.90;0.98;;;;;;;;;;1633885;30;21541;-63
2022/02/12 01:19:03;;;;;;;1.90;0.65;;;;;;;;;;1633412;30;21562;-63
2022/02/12 01:19:56;;;;;;;1.15;0.60;;;;;;;;;;1638471;30;21937;-63
2022/02/12 01:20:47;;;;;;;2.45;0.80;;;;;;;;;;1640102;30;21706;-63
2022/02/12 01:21:39;;;;;;;4.22;1.20;;;;;;;;;;1645661;29;21651;-63
2022/02/12 01:22:30;;;;;;;6.13;0.88;;;;;;;;;;1645373;29;21773;-63
2022/02/12 01:23:22;;;;;;;0.82;0.57;;;;;;;;;;1642345;29;22030;-63
2022/02/12 01:24:14;;;;;;;4.90;0.75;;;;;;;;;;1640261;29;21572;-63
2022/02/12 01:25:08;;;;;;;0.75;0.57;;;;;;;;;;1639777;30;21667;-63
2022/02/12 01:25:59;;;;;;;0.70;0.50;;;;;;;;;;1638227;30;21671;-63
2022/02/12 01:26:52;;;;;;;1.70;0.75;;;;;;;;;;1639415;29;21973;-63
2022/02/12 01:27:43;;;;;;;3.15;0.70;;;;;;;;;;1639166;30;21521;-63
2022/02/12 01:28:37;;;;;;;5.45;0.60;;;;;;;;;;1638178;30;21600;-63
2022/02/12 01:29:28;;;;;;;1.40;0.60;;;;;;;;;;1640454;29;21532;-63
2022/02/12 01:30:20;;;;;;;3.50;0.70;;;;;;;;;;1640310;30;22014;-63
2022/02/12 01:31:12;;;;;;;1.02;0.60;;;;;;;;;;1639162;30;21569;-63
2022/02/12 01:32:04;;;;;;;1.85;0.45;;;;;;;;;;1640390;29;21504;-63
2022/02/12 01:32:56;;;;;;;5.13;0.70;;;;;;;;;;1640505;30;22010;-63
2022/02/12 01:33:48;;;;;;;2.47;0.70;;;;;;;;;;1640325;30;21574;-63
2022/02/12 01:34:39;;;;;;;7.68;0.80;;;;;;;;;;1640402;29;21514;-63
2022/02/12 01:35:32;;;;;;;3.63;1.08;;;;;;;;;;1639712;29;21894;-63
2022/02/12 01:36:23;;;;;;;2.75;0.90;;;;;;;;;;1640314;30;21553;-63
2022/02/12 01:37:15;;;;;;;2.92;0.57;;;;;;;;;;1640289;30;21572;-63
2022/02/12 01:38:07;;;;;;;1.00;0.68;;;;;;;;;;1639821;29;21620;-62
2022/02/12 01:38:59;;;;;;;6.35;0.77;;;;;;;;;;1640292;30;22184;-62
2022/02/12 01:39:50;;;;;;;6.70;0.82;;;;;;;;;;1640404;29;21593;-62
2022/02/12 01:40:43;;;;;;;7.47;0.68;;;;;;;;;;1639242;29;21632;-62
2022/02/12 01:41:34;;;;;;;13.27;0.98;;;;;;;;;;1639520;29;21653;-63
2022/02/12 01:42:28;;;;;;;4.35;0.85;;;;;;;;;;1640281;30;21527;-63
2022/02/12 01:43:19;;;;;;;4.47;0.80;;;;;;;;;;1639750;30;22028;-62
2022/02/12 01:44:12;;;;;;;6.95;0.93;;;;;;;;;;1640155;30;21539;-62
2022/02/12 01:45:05;;;;;;;2.17;0.60;;;;;;;;;;1640448;29;21549;-62
2022/02/12 01:45:57;;;;;;;8.52;0.80;;;;;;;;;;1639934;29;21715;-62
2022/02/12 01:46:48;;;;;;;1.63;0.73;;;;;;;;;;1639992;30;21936;-63
2022/02/12 01:47:41;;;;;;;1.17;0.70;;;;;;;;;;1640474;30;21600;-62
2022/02/12 01:48:32;;;;;;;2.55;0.75;;;;;;;;;;1640257;29;21875;-63
2022/02/12 01:49:24;;;;;;;6.53;0.90;;;;;;;;;;1645489;29;21701;-63
2022/02/12 01:50:15;;;;;;;6.57;1.05;;;;;;;;;;1646091;29;22074;-63
2022/02/12 01:51:08;;;;;;;8.40;1.02;;;;;;;;;;1641957;29;21702;-63
2022/02/12 01:52:00;;;;;;;4.70;0.95;;;;;;;;;;1640283;29;21559;-63
2022/02/12 01:52:52;;;;;;;15.63;0.85;;;;;;;;;;1639636;30;21671;-63
2022/02/12 01:53:44;;;;;;;31.58;1.63;;;;;;;;;;1640312;29;21865;-63
2022/02/12 01:54:36;;;;;;;12.25;0.82;;;;;;;;;;1640169;30;22127;-63
2022/02/12 01:55:27;;;;;;;22.35;1.17;;;;;;;;;;1639722;30;21977;-63
2022/02/12 01:56:20;;;;;;;19.77;1.67;;;;;;;;;;1640411;29;21506;-63
2022/02/12 01:57:11;;;;;;;15.68;1.52;;;;;;;;;;1640248;30;21992;-63
2022/02/12 01:58:06;;;;;;;34.22;2.28;;;;;;;;;;1639707;29;21966;-63
2022/02/12 01:58:57;;;;;;;27.23;1.75;;;;;;;;;;1646003;29;21548;-62
2022/02/12 01:59:51;;;;;;;19.65;1.30;;;;;;;;;;1645981;29;21684;-62
2022/02/12 02:00:43;;;;;;;18.25;1.20;;;;;;;;;;1636077;30;21538;-62
2022/02/12 02:01:35;;;;;;;19.60;1.10;;;;;;;;;;1639300;30;21655;-62
2022/02/12 02:02:26;;;;;;;4.97;0.90;;;;;;;;;;1638590;30;22065;-63
2022/02/12 02:03:19;;;;;;;26.80;2.10;;;;;;;;;;1640540;30;22031;-62
2022/02/12 02:04:10;;;;;;;24.05;1.17;;;;;;;;;;1634852;30;21570;-63
2022/02/12 02:05:02;;;;;;;15.20;1.13;;;;;;;;;;1640356;30;21480;-63
2022/02/12 02:05:55;;;;;;;15.20;1.15;;;;;;;;;;1640590;29;21535;-63
2022/02/12 02:06:48;;;;;;;13.13;1.35;;;;;;;;;;1640031;30;21564;-63
2022/02/12 02:07:40;;;;;;;22.80;1.90;;;;;;;;;;1640118;30;22081;-62
2022/02/12 02:08:33;;;;;;;28.48;1.05;;;;;;;;;;1640318;29;21510;-62
2022/02/12 02:09:24;;;;;;;26.73;1.20;;;;;;;;;;1640384;30;22069;-62
2022/02/12 02:10:16;;;;;;;25.70;1.45;;;;;;;;;;1640432;30;21550;-63
2022/02/12 02:11:08;;;;;;;14.27;1.05;;;;;;;;;;1639049;29;21605;-63
2022/02/12 02:12:00;;;;;;;13.05;1.25;;;;;;;;;;1638229;30;22079;-63
2022/02/12 02:12:52;;;;;;;14.30;1.15;;;;;;;;;;1634683;30;22019;-63
2022/02/12 02:13:44;;;;;;;20.63;1.17;;;;;;;;;;1640385;30;21587;-63
2022/02/12 02:14:37;;;;;;;7.43;0.98;;;;;;;;;;1640367;30;21603;-63
2022/02/12 02:15:31;;;;;;;66.65;2.55;;;;;;;;;;1639738;30;21554;-63
2022/02/12 02:16:22;;;;;;;60.45;3.10;;;;;;;;;;1639709;30;22283;-63
2022/02/12 02:17:14;;;;;;;52.35;2.00;;;;;;;;;;1640461;30;21625;-62
2022/02/12 02:18:06;;;;;;;57.78;2.08;;;;;;;;;;1639826;29;21674;-63
2022/02/12 02:18:58;;;;;;;25.23;1.23;;;;;;;;;;1639603;30;21546;-63
2022/02/12 02:19:50;;;;;;;23.65;2.00;;;;;;;;;;1640275;30;21626;-63
2022/02/12 02:20:42;;;;;;;24.23;1.38;;;;;;;;;;1640258;30;21665;-63
2022/02/12 02:21:35;;;;;;;16.20;1.20;;;;;;;;;;1639970;29;21558;-63
2022/02/12 02:22:34;;;;;;;24.30;1.20;;;;;;;;;;1642008;29;21561;-62
2022/02/12 02:23:27;;;;;;;13.98;1.30;;;;;;;;;;1642442;30;21568;-62
2022/02/12 02:24:19;;;;;;;11.52;0.90;;;;;;;;;;1642471;30;22009;-62
2022/02/12 02:25:11;;;;;;;11.48;1.33;;;;;;;;;;1642553;29;21728;-62
2022/02/12 02:26:04;;;;;;;14.85;1.00;;;;;;;;;;1643439;29;21651;-62
2022/02/12 02:27:07;;;;;;;5.78;1.10;;;;;;;;;;1644352;29;21594;-62
2022/02/12 02:27:59;;;;;;;10.43;1.00;;;;;;;;;;1642665;30;21534;-61
2022/02/12 02:28:51;;;;;;;8.68;1.17;;;;;;;;;;1644099;30;21533;-61
2022/02/12 02:29:44;;;;;;;5.65;1.00;;;;;;;;;;1640305;30;21581;-61
2022/02/12 02:30:35;;;;;;;7.15;0.90;;;;;;;;;;1640949;30;22238;-62
2022/02/12 02:31:28;;;;;;;12.98;0.85;;;;;;;;;;1642752;30;21614;-62
2022/02/12 02:32:19;;;;;;;8.93;1.40;;;;;;;;;;1644150;30;21542;-62
2022/02/12 02:33:11;;;;;;;8.98;1.05;;;;;;;;;;1643772;30;21605;-62
2022/02/12 02:34:07;;;;;;;4.55;1.10;;;;;;;;;;1643179;29;22103;-62
2022/02/12 02:35:00;;;;;;;16.63;1.02;;;;;;;;;;1649226;29;21539;-62
2022/02/12 02:35:51;;;;;;;2.80;0.93;;;;;;;;;;1649091;29;21536;-62
2022/02/12 02:36:43;;;;;;;7.72;0.90;;;;;;;;;;1642744;29;21560;-62
2022/02/12 02:37:34;;;;;;;5.63;0.98;;;;;;;;;;1638164;30;21620;-61
2022/02/12 02:38:28;;;;;;;2.72;0.98;;;;;;;;;;1641623;30;22241;-62
2022/02/12 02:39:19;;;;;;;6.97;1.13;;;;;;;;;;1643792;29;21497;-62
2022/02/12 02:40:14;;;;;;;3.35;0.70;;;;;;;;;;1641889;30;22182;-61
2022/02/12 02:41:06;;;;;;;9.93;0.85;;;;;;;;;;1639125;30;21643;-62
2022/02/12 02:41:58;;;;;;;20.60;1.67;;;;;;;;;;1639699;30;21557;-62
2022/02/12 02:42:51;;;;;;;3.63;0.77;;;;;;;;;;1640155;30;21534;-62
2022/02/12 02:43:43;;;;;;;3.83;0.80;;;;;;;;;;1640025;30;21580;-62
2022/02/12 02:44:34;;;;;;;5.07;0.90;;;;;;;;;;1640360;29;21559;-62
2022/02/12 02:45:27;;;;;;;1.95;0.63;;;;;;;;;;1639775;29;21491;-62
2022/02/12 02:46:19;;;;;;;11.07;1.20;;;;;;;;;;1640274;30;21544;-61
2022/02/12 02:48:21;;;;;;;8.27;0.75;;;;;;;;;;1634928;30;21668;-62
2022/02/12 02:49:12;;;;;;;2.38;0.70;;;;;;;;;;1636712;30;21546;-62
2022/02/12 02:55:59;;;;;;;2.53;0.70;;;;;;;;;;1641972;30;21545;-62
2022/02/12 02:56:12;;;;;;;1.70;1.20;;;;;;;;;;1643962;29;21497;-62
2022/02/12 02:57:04;;;;;;;3.05;0.93;;;;;;;;;;1643390;30;21576;-62
2022/02/12 02:57:56;;;;;;;2.17;1.17;;;;;;;;;;1642491;30;21533;-61
2022/02/12 02:58:50;;;;;;;1.35;0.65;;;;;;;;;;1643289;30;21498;-62
2022/02/12 02:59:42;;;;;;;2.42;0.60;;;;;;;;;;1642828;30;21512;-62
2022/02/12 03:00:33;;;;;;;3.20;0.57;;;;;;;;;;1639518;30;21702;-62
2022/02/12 03:01:27;;;;;;;3.35;0.60;;;;;;;;;;1639420;30;21512;-62
2022/02/12 03:02:18;;;;;;;1.20;0.60;;;;;;;;;;1640192;29;21491;-62
2022/02/12 03:03:10;;;;;;;2.55;0.52;;;;;;;;;;1639418;30;21783;-62
2022/02/12 03:04:04;;;;;;;0.63;0.57;;;;;;;;;;1640149;30;21775;-61
2022/02/12 03:04:55;;;;;;;2.22;0.80;;;;;;;;;;1639952;30;22090;-62
2022/02/12 03:05:47;;;;;;;1.15;0.50;;;;;;;;;;1640219;29;21552;-62
2022/02/12 03:06:38;;;;;;;2.25;0.60;;;;;;;;;;1639335;30;21967;-62
2022/02/12 03:07:30;;;;;;;4.15;0.60;;;;;;;;;;1640072;29;21497;-62
2022/02/12 03:08:21;;;;;;;2.90;0.85;;;;;;;;;;1639646;30;21522;-62
2022/02/12 03:09:16;;;;;;;7.07;1.13;;;;;;;;;;1639443;30;21542;-62
2022/02/12 03:10:08;;;;;;;1.48;1.35;;;;;;;;;;1639149;30;21505;-62
2022/02/12 03:11:00;;;;;;;0.80;0.60;;;;;;;;;;1639160;29;21557;-62
2022/02/12 03:11:53;;;;;;;1.70;0.60;;;;;;;;;;1639984;29;22078;-62
2022/02/12 03:12:45;;;;;;;1.85;0.75;;;;;;;;;;1639353;30;21555;-62
2022/02/12 03:13:37;;;;;;;1.58;0.70;;;;;;;;;;1638066;30;21685;-62
2022/02/12 03:14:29;;;;;;;1.08;0.55;;;;;;;;;;1645671;29;21992;-62
2022/02/12 03:15:21;;;;;;;1.45;0.65;;;;;;;;;;1640219;29;21525;-62
2022/02/12 03:16:13;;;;;;;2.85;0.70;;;;;;;;;;1645105;29;21588;-62
2022/02/12 03:17:05;;;;;;;8.70;1.08;;;;;;;;;;1635731;30;21574;-62
2022/02/12 03:17:57;;;;;;;2.83;0.60;;;;;;;;;;1638831;30;22173;-62
2022/02/12 03:18:49;;;;;;;2.95;0.52;;;;;;;;;;1639321;30;21587;-62
2022/02/12 03:19:41;;;;;;;3.42;0.60;;;;;;;;;;1639938;30;21541;-62
2022/02/12 03:20:32;;;;;;;1.55;0.80;;;;;;;;;;1639364;30;21514;-61
2022/02/12 03:21:25;;;;;;;3.03;0.60;;;;;;;;;;1638674;30;21644;-62
2022/02/12 03:22:17;;;;;;;3.60;0.60;;;;;;;;;;1639273;30;22115;-62
2022/02/12 03:23:10;;;;;;;1.40;0.80;;;;;;;;;;1639662;30;21573;-62
2022/02/12 03:24:01;;;;;;;3.35;0.70;;;;;;;;;;1640087;29;21965;-62
2022/02/12 03:24:55;;;;;;;1.88;0.60;;;;;;;;;;1639667;30;21472;-63
2022/02/12 03:25:46;;;;;;;1.50;0.70;;;;;;;;;;1639409;30;21581;-63
2022/02/12 03:26:38;;;;;;;1.17;0.43;;;;;;;;;;1639762;30;21574;-63
2022/02/12 03:27:29;;;;;;;1.58;0.60;;;;;;;;;;1639776;30;21696;-62
2022/02/12 03:28:21;;;;;;;3.80;0.85;;;;;;;;;;1639971;29;21525;-62
2022/02/12 03:29:13;;;;;;;1.27;0.40;;;;;;;;;;1638220;30;21503;-62
2022/02/12 03:30:06;;;;;;;0.75;0.70;;;;;;;;;;1639375;30;21561;-62
2022/02/12 03:30:57;;;;;;;1.08;0.85;;;;;;;;;;1639005;30;21578;-62
2022/02/12 03:31:50;;;;;;;0.80;0.68;;;;;;;;;;1638473;30;22179;-62
2022/02/12 03:32:41;;;;;;;2.65;0.60;;;;;;;;;;1639812;30;22043;-62
2022/02/12 03:33:33;;;;;;;0.77;0.57;;;;;;;;;;1639162;30;21545;-62
2022/02/12 03:34:24;;;;;;;1.90;0.63;;;;;;;;;;1638565;30;21778;-62
2022/02/12 03:35:16;;;;;;;3.05;0.60;;;;;;;;;;1639664;30;21547;-62
2022/02/12 03:36:09;;;;;;;2.65;0.50;;;;;;;;;;1640021;30;21637;-62
2022/02/12 03:37:00;;;;;;;2.80;0.70;;;;;;;;;;1639866;29;21911;-62
2022/02/12 03:37:51;;;;;;;1.05;0.75;;;;;;;;;;1639190;30;21546;-62
2022/02/12 03:38:48;;;;;;;0.45;0.40;;;;;;;;;;1639709;29;21692;-62
2022/02/12 03:39:39;;;;;;;3.05;0.52;;;;;;;;;;1639984;30;21533;-62
2022/02/12 03:40:32;;;;;;;1.45;0.60;;;;;;;;;;1640020;30;21544;-62
2022/02/12 03:41:25;;;;;;;1.85;0.77;;;;;;;;;;1639015;30;21517;-62
2022/02/12 03:42:17;;;;;;;0.75;0.52;;;;;;;;;;1639075;29;21664;-62
2022/02/12 03:43:09;;;;;;;2.70;0.57;;;;;;;;;;1639735;30;21592;-63
2022/02/12 03:44:01;;;;;;;12.18;0.90;;;;;;;;;;1639605;30;21551;-62
2022/02/12 03:44:52;;;;;;;1.10;0.60;;;;;;;;;;1639316;30;21555;-62
2022/02/12 03:45:45;;;;;;;3.65;0.60;;;;;;;;;;1633344;30;21595;-62
2022/02/12 03:46:36;;;;;;;3.75;0.60;;;;;;;;;;1636363;30;21990;-62
2022/02/12 03:47:28;;;;;;;3.28;0.50;;;;;;;;;;1642855;29;21488;-62
2022/02/12 03:48:20;;;;;;;7.97;0.80;;;;;;;;;;1641839;29;21557;-62
2022/02/12 03:49:12;;;;;;;2.05;0.43;;;;;;;;;;1639146;29;21575;-62
2022/02/12 03:50:04;;;;;;;6.03;0.85;;;;;;;;;;1639222;30;21684;-62
2022/02/12 03:50:57;;;;;;;6.28;0.88;;;;;;;;;;1639091;29;21715;-62
2022/02/12 03:51:48;;;;;;;3.25;0.60;;;;;;;;;;1639733;30;22411;-62
2022/02/12 03:52:41;;;;;;;11.38;0.80;;;;;;;;;;1639116;30;21642;-62
2022/02/12 03:53:32;;;;;;;12.25;0.80;;;;;;;;;;1639731;30;21512;-62
2022/02/12 03:54:24;;;;;;;2.65;0.52;;;;;;;;;;1639641;30;21525;-62
2022/02/12 03:55:15;;;;;;;2.92;0.80;;;;;;;;;;1639117;30;21533;-62
2022/02/12 03:56:09;;;;;;;2.30;0.80;;;;;;;;;;1639084;30;21533;-62
2022/02/12 03:57:00;;;;;;;1.83;0.70;;;;;;;;;;1633123;30;21524;-62
2022/02/12 03:57:52;;;;;;;5.00;0.82;;;;;;;;;;1636455;30;21524;-62
2022/02/12 03:58:47;;;;;;;7.22;1.08;;;;;;;;;;1639294;30;21540;-62
2022/02/12 03:59:40;;;;;;;1.92;0.80;;;;;;;;;;1639725;30;21511;-62
2022/02/12 04:00:31;;;;;;;1.60;0.50;;;;;;;;;;1634634;30;21688;-62
2022/02/12 04:01:23;;;;;;;2.20;0.80;;;;;;;;;;1638882;30;21542;-62
2022/02/12 04:02:14;;;;;;;4.68;0.90;;;;;;;;;;1639286;30;21525;-62
2022/02/12 04:03:07;;;;;;;7.05;1.30;;;;;;;;;;1637644;30;22133;-62
2022/02/12 04:03:58;;;;;;;4.85;0.70;;;;;;;;;;1638349;30;21644;-62
2022/02/12 04:04:50;;;;;;;0.63;0.50;;;;;;;;;;1639737;30;22044;-62
2022/02/12 04:05:43;;;;;;;3.60;0.60;;;;;;;;;;1639252;30;21536;-62
2022/02/12 04:06:36;;;;;;;5.85;0.93;;;;;;;;;;1638608;30;21505;-62
2022/02/12 04:07:27;;;;;;;1.98;0.55;;;;;;;;;;1639834;30;21521;-62
2022/02/12 04:08:21;;;;;;;2.05;0.65;;;;;;;;;;1639313;30;22271;-62
2022/02/12 04:09:12;;;;;;;2.08;0.70;;;;;;;;;;1639032;30;21619;-62
2022/02/12 04:10:06;;;;;;;13.63;1.00;;;;;;;;;;1639733;30;22139;-62
2022/02/12 04:10:57;;;;;;;2.35;0.65;;;;;;;;;;1639007;30;21555;-62
2022/02/12 04:11:51;;;;;;;1.65;0.73;;;;;;;;;;1639102;29;21610;-61
2022/02/12 04:12:44;;;;;;;3.90;0.60;;;;;;;;;;1639760;29;21535;-61
2022/02/12 04:13:36;;;;;;;0.88;0.47;;;;;;;;;;1638808;30;21577;-62
2022/02/12 04:14:28;;;;;;;5.63;0.70;;;;;;;;;;1638467;29;22009;-61
2022/02/12 04:15:21;;;;;;;1.13;0.55;;;;;;;;;;1639522;30;21691;-61
2022/02/12 04:16:12;;;;;;;0.65;0.57;;;;;;;;;;1639805;30;21534;-61
2022/02/12 04:17:05;;;;;;;2.25;0.60;;;;;;;;;;1639048;30;21909;-62
2022/02/12 04:17:56;;;;;;;0.90;0.70;;;;;;;;;;1639729;29;21674;-61
2022/02/12 04:18:48;;;;;;;0.70;0.60;;;;;;;;;;1639462;30;21511;-61
2022/02/12 04:19:39;;;;;;;4.35;0.70;;;;;;;;;;1638898;30;22043;-61
2022/02/12 04:20:32;;;;;;;2.15;0.80;;;;;;;;;;1639762;30;21613;-62
2022/02/12 04:21:23;;;;;;;4.60;0.60;;;;;;;;;;1638079;30;21693;-61
2022/02/12 04:22:15;;;;;;;4.30;0.70;;;;;;;;;;1639108;29;22069;-61
2022/02/12 04:23:07;;;;;;;0.98;0.65;;;;;;;;;;1639566;29;21541;-62
2022/02/12 04:23:59;;;;;;;2.22;0.88;;;;;;;;;;1639554;30;22198;-62
2022/02/12 04:24:50;;;;;;;0.93;0.50;;;;;;;;;;1639275;30;21540;-62
2022/02/12 04:25:42;;;;;;;0.50;0.50;;;;;;;;;;1639361;30;21653;-62
2022/02/12 04:26:33;;;;;;;16.98;1.05;;;;;;;;;;1639572;29;21596;-62
2022/02/12 04:27:28;;;;;;;0.75;0.60;;;;;;;;;;1639567;29;21507;-62
2022/02/12 04:28:19;;;;;;;1.23;0.50;;;;;;;;;;1638957;29;21920;-62
2022/02/12 04:29:11;;;;;;;1.45;0.63;;;;;;;;;;1639479;30;21554;-62
2022/02/12 04:30:04;;;;;;;1.40;0.50;;;;;;;;;;1639615;30;21527;-62
2022/02/12 04:30:56;;;;;;;0.85;0.68;;;;;;;;;;1638336;29;21544;-61
2022/02/12 04:31:47;;;;;;;2.13;0.63;;;;;;;;;;1639636;30;21581;-62
2022/02/12 04:32:41;;;;;;;2.38;0.50;;;;;;;;;;1639745;30;21557;-62
2022/02/12 04:33:35;;;;;;;1.63;0.68;;;;;;;;;;1637982;30;22120;-62
2022/02/12 04:34:27;;;;;;;3.92;0.70;;;;;;;;;;1639336;29;21684;-62
2022/02/12 04:35:18;;;;;;;10.23;0.80;;;;;;;;;;1639525;30;22182;-62
2022/02/12 04:36:10;;;;;;;1.45;0.70;;;;;;;;;;1638878;30;21553;-62
2022/02/12 04:37:02;;;;;;;2.53;0.65;;;;;;;;;;1636890;30;21549;-62
2022/02/12 04:37:55;;;;;;;3.55;0.70;;;;;;;;;;1639506;30;22224;-63
2022/02/12 04:38:46;;;;;;;2.13;0.80;;;;;;;;;;1638996;30;21639;-62
2022/02/12 04:39:38;;;;;;;1.05;0.68;;;;;;;;;;1639558;30;21535;-62
2022/02/12 04:40:30;;;;;;;1.08;0.70;;;;;;;;;;1639584;29;21537;-62
2022/02/12 04:41:22;;;;;;;2.70;0.80;;;;;;;;;;1638262;30;21602;-62
2022/02/12 04:42:14;;;;;;;8.13;1.23;;;;;;;;;;1638862;30;21580;-62
2022/02/12 04:43:07;;;;;;;2.08;0.70;;;;;;;;;;1638989;30;21622;-62
2022/02/12 04:43:58;;;;;;;2.25;0.70;;;;;;;;;;1638644;30;21624;-62
2022/02/12 04:44:53;;;;;;;1.20;0.70;;;;;;;;;;1639488;29;21553;-62
2022/02/12 04:45:44;;;;;;;0.75;0.68;;;;;;;;;;1639657;30;21517;-62
2022/02/12 04:46:37;;;;;;;4.60;0.73;;;;;;;;;;1638926;30;21553;-62
2022/02/12 04:47:29;;;;;;;1.25;0.57;;;;;;;;;;1639450;30;21599;-62
2022/02/12 04:48:21;;;;;;;10.93;0.98;;;;;;;;;;1639480;29;21584;-62
2022/02/12 04:49:12;;;;;;;2.00;0.50;;;;;;;;;;1638734;30;22126;-62
2022/02/12 04:50:06;;;;;;;1.75;0.70;;;;;;;;;;1639441;29;21500;-62
2022/02/12 04:50:57;;;;;;;2.75;0.70;;;;;;;;;;1638976;29;21607;-62
2022/02/12 04:51:49;;;;;;;1.52;0.60;;;;;;;;;;1637619;30;22072;-62
2022/02/12 04:52:40;;;;;;;1.55;0.70;;;;;;;;;;1639608;30;21655;-63
2022/02/12 04:53:33;;;;;;;3.92;0.75;;;;;;;;;;1638805;30;21598;-62
2022/02/12 04:54:24;;;;;;;1.02;0.60;;;;;;;;;;1639318;29;21740;-62
2022/02/12 04:55:16;;;;;;;0.77;0.50;;;;;;;;;;1639484;29;21908;-63
2022/02/12 04:56:07;;;;;;;1.27;0.60;;;;;;;;;;1639742;30;21541;-63
2022/02/12 04:57:00;;;;;;;2.50;0.77;;;;;;;;;;1638867;30;21758;-63
2022/02/12 04:57:51;;;;;;;3.45;0.60;;;;;;;;;;1639480;29;21541;-62
2022/02/12 04:58:45;;;;;;;2.10;0.70;;;;;;;;;;1632553;30;21526;-63
2022/02/12 04:59:37;;;;;;;7.03;0.90;;;;;;;;;;1632858;30;21525;-63
2022/02/12 05:00:29;;;;;;;3.42;0.60;;;;;;;;;;1637398;30;22190;-63
2022/02/12 05:01:20;;;;;;;1.63;0.65;;;;;;;;;;1638253;29;22083;-63
2022/02/12 05:02:12;;;;;;;5.82;0.70;;;;;;;;;;1640203;30;21582;-63
2022/02/12 05:03:04;;;;;;;6.15;0.73;;;;;;;;;;1640533;29;21591;-63
2022/02/12 05:03:56;;;;;;;2.65;0.73;;;;;;;;;;1639821;29;21817;-63
2022/02/12 05:04:47;;;;;;;3.47;0.55;;;;;;;;;;1640466;30;21642;-63
2022/02/12 05:05:39;;;;;;;9.27;0.88;;;;;;;;;;1640676;29;21602;-63
2022/02/12 05:06:30;;;;;;;1.33;0.60;;;;;;;;;;1633924;30;21562;-63
2022/02/12 05:07:23;;;;;;;2.55;0.70;;;;;;;;;;1637784;30;22215;-63
2022/02/12 05:08:14;;;;;;;1.23;0.70;;;;;;;;;;1640332;30;22158;-63
2022/02/12 05:09:06;;;;;;;1.65;0.88;;;;;;;;;;1640379;30;21624;-63
2022/02/12 05:09:57;;;;;;;0.85;0.63;;;;;;;;;;1639977;29;21630;-63
2022/02/12 05:10:49;;;;;;;3.50;0.40;;;;;;;;;;1639951;30;22015;-63
2022/02/12 05:11:41;;;;;;;2.90;0.68;;;;;;;;;;1640056;30;21631;-63
2022/02/12 05:12:34;;;;;;;1.67;0.70;;;;;;;;;;1639930;29;21578;-63
2022/02/12 05:13:25;;;;;;;2.10;0.47;;;;;;;;;;1639594;29;22039;-63
2022/02/12 05:14:20;;;;;;;1.02;0.73;;;;;;;;;;1640334;30;21566;-63
2022/02/12 05:15:11;;;;;;;4.82;0.57;;;;;;;;;;1640023;30;21717;-63
2022/02/12 05:16:04;;;;;;;2.55;0.70;;;;;;;;;;1639290;30;21783;-62
2022/02/12 05:16:55;;;;;;;4.22;0.60;;;;;;;;;;1640212;29;22089;-61
2022/02/12 05:17:48;;;;;;;1.80;0.70;;;;;;;;;;1640438;29;21557;-63